Time;durP1;ratioP1;P1;durP2;ratioP2;P2;SDS_P1;SDS_P2;PMS_P1;PMS_P2;Temp;Humidity;BMP_temperature;BMP_pressure;BME280_temperature;BME280_humidity;BME280_pressure;Samples;Min_cycle;Max_cycle;Signal;HPM_P1;HPM_P2
2022/07/20 00:01:36;;;;;;;17.00;9.35;;;;;;;15.79;76.91;99322.28;2171812;81;21335;-81
2022/07/20 00:04:36;;;;;;;11.05;9.00;;;;;;;15.76;77.17;99322.73;2172149;81;20948;-81
2022/07/20 00:07:36;;;;;;;10.82;8.33;;;;;;;15.72;77.30;99327.55;2172027;81;21106;-81
2022/07/20 00:13:55;;;;;;;9.80;8.38;;;;;;;15.59;77.46;99320.95;2171032;82;20928;-82
2022/07/20 00:16:56;;;;;;;30.08;10.25;;;;;;;15.54;77.67;99321.80;2171627;80;21008;-82
2022/07/20 00:19:56;;;;;;;11.00;9.25;;;;;;;15.50;78.10;99321.37;2171953;80;20973;-82
2022/07/20 00:22:58;;;;;;;17.30;8.75;;;;;;;15.46;77.93;99320.93;2171296;81;20952;-81
2022/07/20 00:25:57;;;;;;;13.10;8.98;;;;;;;15.43;78.07;99323.13;2170576;81;20964;-81
2022/07/20 00:28:57;;;;;;;13.18;8.55;;;;;;;15.40;78.02;99316.55;2170695;81;20935;-81
2022/07/20 00:31:58;;;;;;;12.93;9.38;;;;;;;15.40;78.04;99316.98;2171804;81;20965;-81
2022/07/20 00:34:58;;;;;;;43.20;10.18;;;;;;;15.39;78.14;99319.17;2172108;81;21324;-81
2022/07/20 00:37:59;;;;;;;13.03;8.23;;;;;;;15.35;78.41;99310.84;2171845;81;20941;-81
2022/07/20 00:40:59;;;;;;;9.80;8.88;;;;;;;15.30;78.26;99315.67;2171426;81;20929;-81
2022/07/20 00:44:00;;;;;;;9.50;8.60;;;;;;;15.31;78.42;99316.55;2171465;81;20992;-82
2022/07/20 00:47:00;;;;;;;14.55;9.10;;;;;;;15.22;78.24;99318.73;2171479;81;20961;-81
2022/07/20 00:50:00;;;;;;;10.30;9.13;;;;;;;15.16;78.34;99315.22;2171447;81;20917;-82
2022/07/20 00:53:01;;;;;;;9.73;8.70;;;;;;;15.17;78.47;99315.66;2171551;81;20917;-81
2022/07/20 00:56:01;;;;;;;9.55;8.60;;;;;;;15.13;78.36;99313.91;2171609;81;20913;-81
2022/07/20 00:59:02;;;;;;;10.43;8.73;;;;;;;15.09;78.34;99314.78;2171209;81;20925;-83
2022/07/20 01:02:02;;;;;;;10.40;8.65;;;;;;;15.05;78.41;99316.52;2171796;80;20918;-82
2022/07/20 01:05:02;;;;;;;9.68;8.65;;;;;;;15.02;78.41;99315.64;2171542;81;20937;-81
2022/07/20 01:08:03;;;;;;;108.87;14.23;;;;;;;15.00;78.69;99316.08;2170970;81;20988;-82
2022/07/20 01:11:03;;;;;;;43.17;11.63;;;;;;;15.01;78.78;99317.39;2170917;81;21120;-81
2022/07/20 01:14:04;;;;;;;13.70;9.88;;;;;;;15.04;78.86;99321.34;2171482;81;20952;-81
2022/07/20 01:17:04;;;;;;;85.47;15.05;;;;;;;15.00;78.59;99323.53;2171376;81;20973;-82
2022/07/20 01:20:04;;;;;;;10.95;8.78;;;;;;;14.94;78.71;99318.27;2171731;81;20905;-81
2022/07/20 01:23:05;;;;;;;14.45;9.18;;;;;;;14.90;78.69;99323.07;2171515;81;20972;-82
2022/07/20 01:26:05;;;;;;;9.35;8.30;;;;;;;14.85;78.65;99321.75;2171812;80;20977;-81
2022/07/20 01:29:06;;;;;;;14.05;9.08;;;;;;;14.81;78.85;99321.30;2172192;81;20897;-82
2022/07/20 01:32:06;;;;;;;10.98;8.98;;;;;;;14.78;78.67;99322.61;2171864;81;20921;-82
2022/07/20 01:35:06;;;;;;;12.35;8.75;;;;;;;14.75;78.78;99324.34;2172071;81;20906;-82
2022/07/20 01:38:07;;;;;;;10.20;7.83;;;;;;;14.72;79.02;99315.98;2172216;81;20921;-81
2022/07/20 01:41:07;;;;;;;17.55;9.35;;;;;;;14.70;79.06;99320.80;2171220;81;20957;-81
2022/07/20 01:44:08;;;;;;;11.28;9.33;;;;;;;14.68;79.28;99316.85;2171823;81;20929;-82
2022/07/20 01:47:08;;;;;;;11.10;8.73;;;;;;;14.61;79.06;99319.90;2172380;81;20957;-82
2022/07/20 01:50:08;;;;;;;46.33;12.03;;;;;;;14.53;79.10;99317.68;2172624;81;20924;-80
2022/07/20 01:53:09;;;;;;;13.25;9.48;;;;;;;14.52;79.26;99322.50;2172314;82;20949;-81
2022/07/20 01:56:09;;;;;;;9.83;8.90;;;;;;;14.50;79.36;99326.86;2171980;81;20978;-81
2022/07/20 01:59:10;;;;;;;46.13;11.22;;;;;;;14.46;79.47;99321.59;2172200;81;20936;-82
2022/07/20 02:02:10;;;;;;;17.02;9.73;;;;;;;14.43;79.54;99324.20;2172075;81;20914;-79
2022/07/20 02:05:11;;;;;;;11.93;8.93;;;;;;;14.40;79.63;99322.41;2171677;81;20921;-80
2022/07/20 02:08:11;;;;;;;11.40;8.70;;;;;;;14.37;79.86;99321.52;2172056;82;20886;-81
2022/07/20 02:11:12;;;;;;;16.60;9.43;;;;;;;14.33;79.89;99323.27;2171739;81;20945;-80
2022/07/20 02:14:12;;;;;;;10.95;9.13;;;;;;;14.33;80.27;99318.89;2171659;81;20929;-81
2022/07/20 02:17:13;;;;;;;11.75;8.65;;;;;;;14.34;80.32;99317.14;2171189;82;21012;-79
2022/07/20 02:20:13;;;;;;;12.88;9.50;;;;;;;14.30;80.15;99316.25;2171572;81;20926;-80
2022/07/20 02:23:13;;;;;;;35.10;10.88;;;;;;;14.23;79.98;99316.22;2171664;81;20925;-80
2022/07/20 02:26:14;;;;;;;10.53;8.98;;;;;;;14.20;80.14;99316.20;2171730;81;21005;-81
2022/07/20 02:29:14;;;;;;;11.38;8.60;;;;;;;14.21;80.38;99320.14;2173442;81;20957;-80
2022/07/20 02:32:15;;;;;;;13.10;9.18;;;;;;;14.19;80.36;99317.95;2173498;81;21320;-81
2022/07/20 02:35:15;;;;;;;12.13;8.55;;;;;;;14.16;80.14;99322.30;2173419;81;20941;-81
2022/07/20 02:38:15;;;;;;;12.13;9.38;;;;;;;14.14;80.06;99319.67;2173255;81;20933;-81
2022/07/20 02:41:16;;;;;;;12.03;8.75;;;;;;;14.14;80.20;99318.80;2173095;81;21328;-81
2022/07/20 02:44:16;;;;;;;11.08;9.20;;;;;;;14.13;80.47;99319.66;2173108;81;20941;-82
2022/07/20 02:47:17;;;;;;;11.50;9.08;;;;;;;14.10;80.33;99321.84;2173203;81;20960;-82
2022/07/20 02:50:17;;;;;;;10.08;9.10;;;;;;;14.09;80.34;99320.52;2172908;81;20893;-81
2022/07/20 02:53:17;;;;;;;10.70;8.70;;;;;;;14.08;80.35;99322.70;2172456;81;20983;-81
2022/07/20 02:56:18;;;;;;;17.90;9.15;;;;;;;14.06;80.35;99322.69;2173038;81;20956;-80
2022/07/20 02:59:18;;;;;;;11.55;8.63;;;;;;;14.03;80.47;99331.43;2173668;81;20886;-80
2022/07/20 03:02:19;;;;;;;9.68;8.53;;;;;;;14.06;80.60;99332.31;2173388;81;21313;-80
2022/07/20 03:05:19;;;;;;;9.95;8.85;;;;;;;14.06;80.69;99335.81;2172941;81;21083;-81
2022/07/20 03:08:19;;;;;;;11.15;9.25;;;;;;;14.08;80.59;99335.83;2172600;81;20969;-79
2022/07/20 03:11:20;;;;;;;12.27;8.97;;;;;;;14.11;80.51;99332.78;2172789;81;20917;-81
2022/07/20 03:14:20;;;;;;;12.70;9.00;;;;;;;14.86;84.03;99334.02;2172684;81;20906;-81
2022/07/20 03:17:21;;;;;;;10.35;8.58;;;;;;;14.96;79.67;99331.84;2172287;81;20988;-81
2022/07/20 03:20:21;;;;;;;9.88;8.88;;;;;;;14.81;78.99;99333.13;2172351;82;20949;-82
2022/07/20 03:23:21;;;;;;;14.15;9.63;;;;;;;14.66;78.97;99337.87;2172987;81;20921;-80
2022/07/20 03:26:22;;;;;;;11.55;9.13;;;;;;;14.58;79.14;99342.22;2172748;81;21296;-80
2022/07/20 03:29:22;;;;;;;19.00;9.35;;;;;;;14.54;79.33;99347.02;2171461;80;20916;-81
2022/07/20 03:32:23;;;;;;;11.30;8.95;;;;;;;14.49;79.30;99355.32;2172027;81;20948;-81
2022/07/20 03:35:23;;;;;;;9.50;8.30;;;;;;;14.50;79.48;99355.76;2171638;80;20964;-81
2022/07/20 03:38:23;;;;;;;14.33;8.50;;;;;;;14.57;79.80;99355.34;2171403;81;20909;-82
2022/07/20 03:41:24;;;;;;;14.73;8.25;;;;;;;14.58;79.64;99357.11;2171773;82;20968;-80
2022/07/20 03:44:24;;;;;;;12.85;8.33;;;;;;;14.60;79.61;99357.98;2171408;81;20976;-81
2022/07/20 03:47:25;;;;;;;46.65;10.20;;;;;;;14.64;79.91;99356.69;2171049;81;20985;-80
2022/07/20 03:50:25;;;;;;;12.00;8.60;;;;;;;14.69;79.87;99363.72;2171045;81;21005;-82
2022/07/20 03:53:25;;;;;;;10.20;8.70;;;;;;;14.68;79.91;99360.64;2170767;81;20961;-81
2022/07/20 03:56:26;;;;;;;14.38;9.43;;;;;;;14.71;80.02;99361.97;2170808;81;21380;-81
2022/07/20 03:59:26;;;;;;;19.50;8.90;;;;;;;14.76;80.35;99365.09;2170352;81;20921;-80
2022/07/20 04:02:27;;;;;;;24.35;9.85;;;;;;;14.85;80.40;99367.74;2170653;81;20921;-81
2022/07/20 04:05:27;;;;;;;11.45;8.28;;;;;;;14.96;80.52;99370.40;2170757;81;20933;-79
2022/07/20 04:08:27;;;;;;;305.07;25.65;;;;;;;15.04;80.64;99372.61;2171289;81;20901;-81
2022/07/20 04:11:28;;;;;;;92.27;13.70;;;;;;;15.09;80.69;99372.19;2171171;81;20920;-80
2022/07/20 04:14:28;;;;;;;12.93;9.10;;;;;;;15.21;80.73;99382.72;2170432;81;20929;-80
2022/07/20 04:17:29;;;;;;;17.32;9.93;;;;;;;15.29;80.45;99385.36;2169830;81;21031;-81
2022/07/20 04:20:29;;;;;;;12.18;8.80;;;;;;;15.47;80.80;99383.19;2169967;81;20917;-80
2022/07/20 04:23:30;;;;;;;10.08;8.50;;;;;;;15.67;80.73;99380.20;2170227;82;20913;-82
2022/07/20 04:26:30;;;;;;;27.27;10.35;;;;;;;15.82;80.40;99386.77;2169278;82;20953;-81
2022/07/20 04:29:30;;;;;;;11.28;8.88;;;;;;;15.98;80.25;99392.02;2170191;81;21329;-81
2022/07/20 04:32:31;;;;;;;10.88;8.00;;;;;;;16.19;80.19;99381.45;2170071;81;20882;-80
2022/07/20 04:35:31;;;;;;;10.63;8.48;;;;;;;16.31;79.83;99378.78;2169515;82;21027;-81
2022/07/20 04:38:32;;;;;;;9.68;8.68;;;;;;;16.48;79.87;99384.91;2169949;81;21254;-81
2022/07/20 04:41:32;;;;;;;11.93;8.75;;;;;;;16.62;79.74;99383.98;2169648;80;20964;-80
2022/07/20 04:44:32;;;;;;;17.17;8.25;;;;;;;16.96;80.05;99384.73;2169604;82;20917;-80
2022/07/20 04:47:33;;;;;;;41.20;9.15;;;;;;;17.30;79.45;99382.77;2169657;82;21009;-79
2022/07/20 04:50:33;;;;;;;10.08;7.83;;;;;;;17.51;78.52;99383.53;2169810;81;21293;-78
2022/07/20 04:53:34;;;;;;;13.53;8.08;;;;;;;17.66;78.17;99389.58;2169180;81;20921;-78
2022/07/20 04:56:34;;;;;;;17.20;8.83;;;;;;;17.88;77.91;99393.81;2170523;81;21005;-81
2022/07/20 04:59:34;;;;;;;42.13;11.78;;;;;;;19.09;78.79;99390.32;2169946;81;20953;-79
2022/07/20 05:02:35;;;;;;;20.82;10.03;;;;;;;19.47;75.26;99389.34;2169416;81;20882;-81
2022/07/20 05:05:36;;;;;;;10.03;8.90;;;;;;;19.47;74.18;99397.28;2169666;81;20921;-81
2022/07/20 05:08:36;;;;;;;262.63;30.37;;;;;;;19.60;74.35;99395.77;2168912;82;20913;-80
2022/07/20 05:11:36;;;;;;;152.60;22.32;;;;;;;19.78;73.88;99399.02;2168473;81;20953;-79
2022/07/20 05:14:36;;;;;;;906.50;92.95;;;;;;;19.95;72.91;99404.95;2168122;81;21299;-82
2022/07/20 05:17:37;;;;;;;146.30;22.95;;;;;;;20.46;73.30;99412.44;2167957;81;21379;-81
2022/07/20 05:20:37;;;;;;;201.90;24.47;;;;;;;21.16;72.70;99416.33;2168601;82;20969;-80
2022/07/20 05:23:38;;;;;;;95.00;17.40;;;;;;;21.79;70.48;99412.27;2169422;82;20914;-83
2022/07/20 05:26:38;;;;;;;38.15;13.83;;;;;;;22.06;69.67;99413.40;2170302;81;21396;-83
2022/07/20 05:29:38;;;;;;;23.38;11.10;;;;;;;22.60;69.36;99411.08;2169686;81;20922;-83
2022/07/20 05:32:39;;;;;;;26.40;12.98;;;;;;;23.13;67.19;99418.88;2171485;81;20928;-83
2022/07/20 05:35:39;;;;;;;129.47;18.50;;;;;;;23.50;65.47;99414.66;2171942;81;21367;-84
2022/07/20 05:38:40;;;;;;;42.98;12.78;;;;;;;23.61;62.33;99411.68;2170428;81;21404;-83
2022/07/20 05:41:40;;;;;;;106.35;16.30;;;;;;;23.46;61.13;99410.34;2170077;81;20910;-82
2022/07/20 05:44:40;;;;;;;27.40;12.25;;;;;;;23.55;61.13;99411.00;2170244;81;20955;-83
2022/07/20 05:47:41;;;;;;;30.68;12.65;;;;;;;23.90;62.46;99409.86;2170192;81;21016;-83
2022/07/20 05:50:41;;;;;;;21.23;11.20;;;;;;;24.26;61.00;99403.73;2170002;81;20967;-82
2022/07/20 05:53:42;;;;;;;32.30;11.57;;;;;;;24.40;59.32;99406.84;2169420;81;20905;-82
2022/07/20 05:56:42;;;;;;;16.52;11.57;;;;;;;24.56;60.07;99404.50;2169358;81;20960;-82
2022/07/20 05:59:42;;;;;;;27.60;11.68;;;;;;;24.71;59.13;99405.28;2169287;81;21561;-82
2022/07/20 06:02:43;;;;;;;25.43;12.03;;;;;;;24.85;58.41;99407.44;2169663;82;20925;-82
2022/07/20 06:05:43;;;;;;;27.32;12.60;;;;;;;25.15;57.72;99406.34;2169048;81;20992;-83
2022/07/20 06:08:44;;;;;;;30.75;12.35;;;;;;;25.26;56.94;99404.13;2168487;81;20943;-81
2022/07/20 06:11:44;;;;;;;26.60;11.95;;;;;;;25.30;56.40;99411.55;2168244;81;20949;-84
2022/07/20 06:14:44;;;;;;;27.00;10.95;;;;;;;25.52;57.11;99409.77;2169263;80;20965;-82
2022/07/20 06:17:45;;;;;;;19.23;11.73;;;;;;;25.78;55.38;99421.25;2168631;82;20969;-81
2022/07/20 06:20:45;;;;;;;170.70;24.02;;;;;;;25.94;54.46;99416.55;2168870;82;20917;-82
2022/07/20 06:23:46;;;;;;;116.47;16.17;;;;;;;26.05;53.68;99424.16;2168890;82;20944;-82
2022/07/20 06:26:46;;;;;;;39.80;13.03;;;;;;;26.25;54.11;99425.98;2169039;80;20898;-81
2022/07/20 06:29:47;;;;;;;25.12;10.60;;;;;;;26.42;52.57;99419.47;2168969;81;21186;-82
2022/07/20 06:32:47;;;;;;;24.37;10.23;;;;;;;26.65;52.34;99417.98;2168628;81;21535;-82
2022/07/20 06:35:47;;;;;;;20.85;11.03;;;;;;;26.76;50.51;99413.95;2168893;81;20984;-82
2022/07/20 06:38:48;;;;;;;15.88;10.85;;;;;;;26.85;49.94;99414.41;2169555;82;20944;-82
2022/07/20 06:41:48;;;;;;;15.78;10.18;;;;;;;26.83;48.77;99411.39;2169366;81;20925;-80
2022/07/20 06:44:49;;;;;;;19.12;10.08;;;;;;;27.03;48.98;99414.09;2169504;81;21038;-83
2022/07/20 06:47:50;;;;;;;29.55;10.28;;;;;;;27.20;48.79;99415.52;2169874;81;20985;-82
2022/07/20 06:50:49;;;;;;;10.32;9.10;;;;;;;27.40;48.39;99413.70;2169609;81;20913;-82
2022/07/20 06:53:50;;;;;;;40.10;16.15;;;;;;;27.63;47.43;99416.66;2169541;81;20985;-82
2022/07/20 06:56:50;;;;;;;23.22;15.58;;;;;;;27.93;48.14;99419.67;2170127;81;20968;-84
2022/07/20 06:59:51;;;;;;;19.98;10.85;;;;;;;27.99;45.98;99416.68;2169609;81;20937;-82
2022/07/20 07:02:51;;;;;;;26.40;13.55;;;;;;;27.98;47.59;99411.78;2169643;81;20968;-82
2022/07/20 07:05:51;;;;;;;58.02;11.45;;;;;;;28.24;45.48;99414.52;2169217;81;21537;-80
2022/07/20 07:08:52;;;;;;;18.37;7.92;;;;;;;28.43;44.75;99411.75;2168639;81;20992;-80
2022/07/20 07:11:52;;;;;;;30.77;9.78;;;;;;;28.68;44.04;99416.26;2169272;81;20921;-81
2022/07/20 07:14:53;;;;;;;16.15;7.62;;;;;;;28.85;42.77;99416.26;2169111;81;20940;-81
2022/07/20 07:17:53;;;;;;;25.85;7.90;;;;;;;28.80;41.76;99416.08;2169478;81;21020;-82
2022/07/20 07:20:53;;;;;;;17.70;8.28;;;;;;;28.87;41.20;99415.31;2169454;81;21318;-82
2022/07/20 07:23:54;;;;;;;20.20;7.97;;;;;;;28.77;40.86;99412.22;2171203;81;20925;-81
2022/07/20 07:26:54;;;;;;;17.12;8.00;;;;;;;28.80;40.85;99413.39;2170031;82;20944;-80
2022/07/20 07:29:55;;;;;;;8.00;6.78;;;;;;;28.89;40.07;99420.98;2170102;82;20958;-80
2022/07/20 07:32:55;;;;;;;10.75;8.13;;;;;;;28.95;39.62;99424.69;2170448;81;21580;-80
2022/07/20 07:35:55;;;;;;;13.65;8.30;;;;;;;28.91;39.73;99416.88;2171672;81;20948;-80
2022/07/20 07:38:56;;;;;;;9.50;6.47;;;;;;;29.01;39.34;99425.70;2171028;81;20972;-81
2022/07/20 07:41:56;;;;;;;10.10;6.92;;;;;;;28.99;38.65;99425.39;2170156;81;20986;-80
2022/07/20 07:44:59;;;;;;;20.37;7.95;;;;;;;28.99;38.65;99425.39;2169948;81;20921;-80
2022/07/20 07:47:57;;;;;;;12.90;6.80;;;;;;;29.03;39.34;99430.52;2169841;81;20949;-81
2022/07/20 07:50:58;;;;;;;11.53;6.90;;;;;;;29.22;39.90;99435.75;2170187;81;21318;-81
2022/07/20 07:53:58;;;;;;;12.55;9.63;;;;;;;29.53;39.28;99430.08;2169539;82;20941;-80
2022/07/20 07:56:58;;;;;;;23.67;7.67;;;;;;;29.67;38.77;99425.65;2168606;81;20981;-81
2022/07/20 07:59:59;;;;;;;58.78;11.15;;;;;;;29.83;38.81;99424.77;2169043;81;20972;-82
2022/07/20 08:03:00;;;;;;;53.52;9.75;;;;;;;29.97;38.28;99421.66;2168782;82;20953;-83
2022/07/20 08:06:00;;;;;;;15.70;7.60;;;;;;;30.15;38.44;99422.92;2169205;82;20933;-80
2022/07/20 08:09:01;;;;;;;10.35;5.87;;;;;;;30.26;36.12;99417.28;2170327;81;21803;-81
2022/07/20 08:12:01;;;;;;;66.55;8.95;;;;;;;30.26;36.12;99417.28;2170155;81;20980;-83
2022/07/20 08:15:02;;;;;;;12.78;6.55;;;;;;;30.16;36.77;99416.09;2170329;81;20917;-80
2022/07/20 08:18:03;;;;;;;10.95;7.03;;;;;;;30.26;36.75;99414.59;2170117;81;21016;-80
2022/07/20 08:21:02;;;;;;;7.87;6.30;;;;;;;30.38;36.83;99405.80;2170142;81;20925;-80
2022/07/20 08:24:06;;;;;;;26.80;7.22;;;;;;;30.53;36.97;99412.09;2169690;81;20975;-81
2022/07/20 08:27:06;;;;;;;36.73;7.83;;;;;;;30.66;36.17;99402.33;2170344;81;20949;-80
2022/07/20 08:30:06;;;;;;;8.90;6.03;;;;;;;30.76;37.14;99401.75;2169472;81;20949;-79
2022/07/20 08:33:07;;;;;;;183.68;20.12;;;;;;;31.03;36.25;99407.63;2168055;81;20885;-78
2022/07/20 08:36:07;;;;;;;14.75;7.15;;;;;;;31.22;35.70;99407.88;2168000;81;20964;-79
2022/07/20 08:39:08;;;;;;;6.35;5.70;;;;;;;31.39;35.33;99402.75;2167879;81;20949;-78
2022/07/20 08:42:08;;;;;;;11.48;5.22;;;;;;;31.56;35.06;99406.08;2167349;81;20961;-77
2022/07/20 08:45:09;;;;;;;6.53;5.62;;;;;;;31.67;34.75;99410.77;2168084;80;21607;-77
2022/07/20 08:48:11;;;;;;;6.92;5.28;;;;;;;31.76;34.01;99407.98;2168796;81;21012;-81
2022/07/20 08:51:09;;;;;;;6.75;6.05;;;;;;;31.72;32.88;99407.80;2168825;81;20905;-79
2022/07/20 08:54:10;;;;;;;13.85;8.98;;;;;;;31.77;33.17;99405.66;2169026;81;21005;-80
2022/07/20 08:57:10;;;;;;;6.97;5.50;;;;;;;31.77;33.15;99409.72;2168571;81;20960;-80
2022/07/20 09:00:11;;;;;;;5.80;5.10;;;;;;;31.80;32.60;99404.11;2168775;80;20920;-78
2022/07/20 09:03:11;;;;;;;8.73;5.35;;;;;;;31.96;32.43;99402.12;2168478;82;20948;-79
2022/07/20 09:06:11;;;;;;;7.50;5.42;;;;;;;32.11;31.97;99402.47;2168271;81;21415;-79
2022/07/20 09:09:12;;;;;;;8.65;5.53;;;;;;;32.27;31.44;99405.89;2168289;82;20921;-79
2022/07/20 09:12:12;;;;;;;6.40;5.17;;;;;;;32.20;31.05;99403.19;2168575;81;20897;-78
2022/07/20 09:15:12;;;;;;;6.10;5.50;;;;;;;32.23;31.72;99407.03;2168644;81;21392;-81
2022/07/20 09:18:13;;;;;;;11.85;5.53;;;;;;;32.29;31.03;99402.59;2168935;81;21048;-80
2022/07/20 09:21:13;;;;;;;6.60;5.40;;;;;;;32.28;31.29;99403.56;2169979;82;20945;-80
2022/07/20 09:24:14;;;;;;;25.10;5.87;;;;;;;32.38;31.51;99402.94;2169404;81;20933;-82
2022/07/20 09:27:14;;;;;;;7.03;5.47;;;;;;;32.45;31.21;99401.54;2169610;81;20937;-81
2022/07/20 09:30:18;;;;;;;5.62;4.87;;;;;;;32.27;30.93;99398.27;2170344;81;20968;-81
2022/07/20 09:33:18;;;;;;;5.67;5.03;;;;;;;32.26;30.62;99394.70;2169477;81;21332;-81
2022/07/20 09:36:18;;;;;;;8.18;4.95;;;;;;;32.35;31.17;99401.31;2170354;81;20972;-80
2022/07/20 09:39:19;;;;;;;14.03;5.12;;;;;;;32.46;31.46;99400.56;2170597;81;20938;-79
2022/07/20 09:42:19;;;;;;;10.88;5.33;;;;;;;32.46;30.97;99401.44;2169997;81;20885;-79
2022/07/20 09:45:20;;;;;;;7.12;4.92;;;;;;;32.46;30.97;99401.44;2169323;81;20961;-81
2022/07/20 09:48:23;;;;;;;8.33;5.05;;;;;;;32.40;30.95;99395.59;2169056;81;20956;-81
2022/07/20 09:51:21;;;;;;;8.03;4.62;;;;;;;32.43;31.04;99395.38;2169891;81;20930;-81
2022/07/20 09:54:21;;;;;;;12.28;9.00;;;;;;;32.44;30.83;99391.70;2169381;81;20946;-82
2022/07/20 09:57:21;;;;;;;20.15;5.50;;;;;;;32.65;30.37;99384.80;2169810;81;20987;-82
2022/07/20 10:00:22;;;;;;;6.12;4.85;;;;;;;32.74;30.22;99389.55;2169136;81;21316;-80
2022/07/20 10:03:22;;;;;;;8.05;4.47;;;;;;;32.59;29.53;99396.04;2169973;81;20966;-82
2022/07/20 10:06:22;;;;;;;13.35;4.72;;;;;;;32.39;29.65;99396.56;2169496;81;20894;-81
2022/07/20 10:09:23;;;;;;;6.33;4.12;;;;;;;32.51;29.78;99388.47;2168945;81;21356;-81
2022/07/20 10:12:23;;;;;;;4.33;3.92;;;;;;;32.60;29.29;99390.53;2169855;81;20944;-80
2022/07/20 10:15:26;;;;;;;5.12;4.37;;;;;;;32.36;29.35;99389.53;2161135;82;20973;-80
2022/07/20 10:18:26;;;;;;;4.55;4.05;;;;;;;32.19;29.56;99391.14;2169596;81;21004;-80
2022/07/20 10:21:26;;;;;;;7.30;4.45;;;;;;;32.05;29.64;99385.30;2170614;81;20924;-81
2022/07/20 10:24:34;;;;;;;6.60;4.47;;;;;;;32.05;30.32;99383.95;2171018;82;20945;-81
2022/07/20 10:27:36;;;;;;;63.10;9.50;;;;;;;32.28;30.02;99384.66;2169828;82;20952;-83
2022/07/20 10:30:34;;;;;;;13.93;4.87;;;;;;;32.19;29.90;99387.95;2170081;80;20958;-84
2022/07/20 10:33:34;;;;;;;7.67;4.30;;;;;;;32.06;29.60;99384.33;2170054;81;20980;-82
2022/07/20 10:36:43;;;;;;;5.55;4.12;;;;;;;32.22;30.16;99382.83;2170178;81;21675;-81
2022/07/20 10:39:45;;;;;;;6.35;3.72;;;;;;;32.49;29.72;99385.01;2170588;81;20976;-81
2022/07/20 10:42:45;;;;;;;5.30;4.12;;;;;;;32.57;28.79;99381.28;2169226;81;21340;-82
2022/07/20 10:45:46;;;;;;;8.70;4.37;;;;;;;32.52;28.50;99374.47;2168902;81;20929;-82
2022/07/20 10:48:45;;;;;;;4.65;4.05;;;;;;;32.50;29.06;99375.06;2169161;81;20960;-81
2022/07/20 10:51:45;;;;;;;5.33;3.75;;;;;;;32.50;29.18;99371.02;2168628;82;21701;-81
2022/07/20 10:54:46;;;;;;;4.62;3.77;;;;;;;32.56;28.70;99369.23;2168227;81;21332;-80
2022/07/20 10:57:46;;;;;;;8.70;4.17;;;;;;;32.67;27.98;99369.34;2167682;81;20976;-82
2022/07/20 11:00:47;;;;;;;9.88;4.58;;;;;;;32.53;28.63;99377.55;2169468;81;20905;-82
2022/07/20 11:03:48;;;;;;;7.60;4.17;;;;;;;32.49;28.28;99371.50;2169856;82;20972;-82
2022/07/20 11:06:47;;;;;;;46.48;7.62;;;;;;;32.55;28.10;99374.26;2169639;81;21298;-82
2022/07/20 11:09:48;;;;;;;5.15;3.77;;;;;;;32.76;27.43;99370.52;2169790;81;20914;-84
2022/07/20 11:12:48;;;;;;;4.33;3.55;;;;;;;32.94;26.25;99376.00;2169230;80;20881;-76
2022/07/20 11:15:49;;;;;;;5.22;3.60;;;;;;;32.83;27.15;99372.72;2169975;82;20945;-80
2022/07/20 11:18:49;;;;;;;4.30;3.90;;;;;;;32.84;26.32;99367.69;2170498;82;20980;-81
2022/07/20 11:21:49;;;;;;;1474.40;188.05;;;;;;;33.00;27.19;99365.27;2169890;82;20922;-81
2022/07/20 11:24:50;;;;;;;4.80;4.28;;;;;;;33.16;27.27;99361.34;2169396;81;21008;-80
2022/07/20 11:27:50;;;;;;;10.28;4.03;;;;;;;33.31;27.59;99364.80;2169195;81;21331;-82
2022/07/20 11:30:51;;;;;;;5.92;3.72;;;;;;;33.30;27.79;99366.27;2169252;81;21392;-81
2022/07/20 11:33:51;;;;;;;6.45;4.22;;;;;;;33.14;27.15;99368.70;2169046;82;20917;-80
2022/07/20 11:36:57;;;;;;;4.42;3.83;;;;;;;33.10;27.17;99373.95;2160191;81;20949;-80
2022/07/20 11:39:54;;;;;;;4.78;3.47;;;;;;;33.18;27.61;99369.34;2170166;81;20964;-80
2022/07/20 11:42:54;;;;;;;5.20;4.00;;;;;;;33.35;27.13;99369.00;2169448;82;20909;-81
2022/07/20 11:45:55;;;;;;;5.80;4.15;;;;;;;33.46;26.83;99360.95;2170255;80;20913;-81
2022/07/20 11:48:55;;;;;;;32.50;6.65;;;;;;;33.65;27.01;99365.86;2169749;82;21016;-81
2022/07/20 11:51:56;;;;;;;7.17;4.15;;;;;;;33.58;27.05;99369.14;2167486;82;20885;-82
2022/07/20 11:54:56;;;;;;;6.30;3.90;;;;;;;33.27;26.99;99367.31;2169705;81;21352;-81
2022/07/20 11:57:56;;;;;;;11.75;4.20;;;;;;;33.27;27.29;99371.86;2169214;81;20972;-81
2022/07/20 12:00:57;;;;;;;5.08;4.25;;;;;;;33.15;27.47;99354.69;2169756;81;21046;-83
2022/07/20 12:03:57;;;;;;;6.10;3.75;;;;;;;33.27;27.31;99352.44;2169326;82;20921;-82
2022/07/20 12:06:58;;;;;;;12.07;4.45;;;;;;;33.20;27.46;99353.86;2169194;82;21278;-83
2022/07/20 12:10:00;;;;;;;14.95;4.30;;;;;;;33.00;27.38;99358.50;2169776;81;21324;-82
2022/07/20 12:12:58;;;;;;;4.60;4.20;;;;;;;32.83;28.04;99359.69;2170059;81;20961;-83
2022/07/20 12:15:59;;;;;;;5.33;3.70;;;;;;;32.76;27.27;99352.95;2169218;81;20976;-82
2022/07/20 12:18:59;;;;;;;6.17;3.70;;;;;;;32.75;27.33;99353.44;2169513;80;20980;-82
2022/07/20 12:22:00;;;;;;;4.05;3.65;;;;;;;32.87;27.09;99360.70;2169727;82;20916;-82
2022/07/20 12:25:00;;;;;;;6.17;4.40;;;;;;;33.06;27.27;99344.54;2170156;81;20929;-81
2022/07/20 12:28:00;;;;;;;4.72;3.75;;;;;;;33.20;26.52;99346.61;2168849;81;20948;-81
2022/07/20 12:31:01;;;;;;;8.25;3.65;;;;;;;33.12;25.53;99341.39;2169230;81;21024;-82
2022/07/20 12:34:01;;;;;;;9.95;3.55;;;;;;;32.84;27.17;99349.25;2169151;81;20917;-83
2022/07/20 12:37:02;;;;;;;3.70;3.40;;;;;;;33.02;27.17;99341.68;2169205;81;21422;-81
2022/07/20 12:40:02;;;;;;;13.68;4.10;;;;;;;33.16;27.38;99341.54;2168568;82;20996;-83
2022/07/20 12:43:03;;;;;;;8.68;3.77;;;;;;;33.38;27.47;99338.15;2168837;81;20981;-81
2022/07/20 12:46:06;;;;;;;7.87;3.83;;;;;;;33.39;26.34;99332.63;2169140;81;20945;-83
2022/07/20 12:49:03;;;;;;;9.43;3.90;;;;;;;33.27;26.00;99333.98;2169279;81;20996;-82
2022/07/20 12:52:04;;;;;;;4.65;4.25;;;;;;;33.29;26.13;99334.25;2169977;81;20984;-82
2022/07/20 12:55:04;;;;;;;4.10;3.80;;;;;;;33.30;25.84;99336.02;2169988;81;20921;-83
2022/07/20 12:58:05;;;;;;;39.48;5.87;;;;;;;33.14;24.92;99329.97;2169357;81;20997;-81
2022/07/20 13:01:05;;;;;;;7.78;4.10;;;;;;;33.12;25.89;99330.57;2169272;82;21602;-81
2022/07/20 13:04:06;;;;;;;5.62;3.90;;;;;;;33.10;26.67;99334.73;2169696;81;20925;-83
2022/07/20 13:07:06;;;;;;;5.60;4.15;;;;;;;33.19;26.71;99325.95;2171074;81;20956;-82
2022/07/20 13:10:06;;;;;;;10.72;7.60;;;;;;;33.23;25.88;99329.30;2170781;81;20933;-82
2022/07/20 13:13:07;;;;;;;5.28;3.80;;;;;;;33.30;26.96;99329.25;2169506;81;20993;-79
2022/07/20 13:16:07;;;;;;;5.67;3.90;;;;;;;33.67;26.82;99327.36;2168884;82;20972;-82
2022/07/20 13:19:07;;;;;;;4.45;3.80;;;;;;;34.07;26.64;99326.59;2169577;82;21019;-82
2022/07/20 13:22:08;;;;;;;4.08;3.67;;;;;;;34.19;26.55;99326.13;2170468;81;21321;-82
2022/07/20 13:25:08;;;;;;;25.08;5.33;;;;;;;34.16;25.78;99320.47;2169910;81;20886;-82
2022/07/20 13:28:11;;;;;;;13.28;4.75;;;;;;;34.23;26.14;99314.56;2169231;81;20948;-82
2022/07/20 13:31:09;;;;;;;8.40;4.00;;;;;;;34.30;26.40;99315.32;2169198;81;20960;-80
2022/07/20 13:34:09;;;;;;;4.83;3.70;;;;;;;34.52;26.25;99313.66;2169343;82;20968;-81
2022/07/20 13:37:10;;;;;;;16.85;5.00;;;;;;;34.69;25.83;99308.65;2169172;81;21416;-82
2022/07/20 13:40:10;;;;;;;5.72;4.03;;;;;;;34.52;26.73;99315.02;2169849;81;20909;-81
2022/07/20 13:43:11;;;;;;;7.37;4.10;;;;;;;34.49;26.32;99304.78;2168868;81;20921;-81
2022/07/20 13:46:11;;;;;;;4.42;3.95;;;;;;;34.47;24.94;99304.54;2169578;82;21345;-81
2022/07/20 13:49:11;;;;;;;3.92;3.35;;;;;;;34.34;25.60;99299.22;2169662;81;20977;-80
2022/07/20 13:52:12;;;;;;;3.95;3.50;;;;;;;34.48;25.56;99300.84;2169918;81;20946;-80
2022/07/20 13:55:12;;;;;;;5.92;3.42;;;;;;;34.56;25.45;99292.10;2170308;81;21285;-81
2022/07/20 13:58:13;;;;;;;5.28;3.70;;;;;;;34.53;25.71;99296.41;2169923;82;20949;-80
2022/07/20 14:01:13;;;;;;;4.65;3.67;;;;;;;34.59;25.82;99290.01;2169299;81;20968;-81
2022/07/20 14:04:14;;;;;;;3.83;3.40;;;;;;;34.69;25.11;99285.60;2170534;82;20953;-81